Sautee Nacoochee, GA

2:35 AM EDT on June 03, 2015 (GMT -0400)
KGASAUTE2 | | Change Station
CLOSE
Current Station
Personal Weather Station
Location: Sautee Nachoochee, GA
Elevation: 1545 ft
Nearby Weather Stations

Elev 1545 ft 34.75 °N, 83.65 °W | Updated 0 second ago

Clear
Clear
57.1 °F
Feels Like 57.1 °F
N
0.0
Wind Variable Wind from West
Gusts 0.0 mph

Today
High -- | Low -- °F
--% Chance of Precip.
Yesterday
High -- | Low -- °F
Precip. -- in
6:21 AM 8:43 PM
Full, 100% visible
Pressure 30.03 in
Visibility 1.2 miles
Clouds
Dew Point 56 °F
Humidity 97%
Rainfall 0.00 in
Snow Depth Not available.
UV Not available.
Pollen 2.20 out of 12
Air Quality Not available.
Flu Activity Sporadic
METAR KDZJ 030615Z AUTO 00000KT 1 1/4SM HZ 15/12 A3003 RMK AO2 T01500122

More Conditions Fewer Conditions

Pressure 30.03 in
Visibility 1.2 miles
Clouds
Dew Point 56 °F
Humidity 97%
Rainfall 0.00 in
Snow Depth Not available.
UV Not available.
Pollen 2.20 out of 12
Air Quality Not available.
Flu Activity Sporadic
METAR KDZJ 030615Z AUTO 00000KT 1 1/4SM HZ 15/12 A3003 RMK AO2 T01500122

More Conditions Fewer Conditions

10-Day Weather Forecast

×

Almanac

Astronomy

Jun. 03, 2015 Rise Set
Actual Time
Civil Twilight
Nautical Twilight
Astronomical Twilight
Moon
Length of Visible Light
Length of Day
Tomorrow will be .
, % of the Moon is Illuminated

Today's Extremes

State Highs State Lows

Community

WunderPhotos

Upload Photos

1,826,185 photos uploaded!

WunderBlogs® & News

Nearby

Air Quality

  Air Quality AQ Index Pollutant
Not available.

Snow Depth

Station Depth Elevation

Earthquake Activity

City Distance Mag. Time & Date
Minimum magnitude displayed is 2.5.

Coastal Water Temperatures

Place Temperature

Stations

Nearby Weather Stations

Station Location Temp. Windchill Dew Point Humidity Wind Precip. Elev Updated Type